createdAt,value
2022-10-25T00:02:26.263Z,13.58
2022-10-25T00:05:30.333Z,13.57
2022-10-25T00:08:33.367Z,13.57
2022-10-25T00:11:36.566Z,13.54
2022-10-25T00:14:39.660Z,13.56
2022-10-25T00:17:42.465Z,13.49
2022-10-25T00:20:47.676Z,13.41
2022-10-25T00:23:51.792Z,13.38
2022-10-25T00:26:54.809Z,13.33
2022-10-25T00:29:57.820Z,13.35
2022-10-25T00:33:01.252Z,13.31
2022-10-25T00:36:10.766Z,13.22
2022-10-25T00:39:13.442Z,13.19
2022-10-25T00:42:22.307Z,13.22
2022-10-25T00:45:26.322Z,13.20
2022-10-25T00:48:30.057Z,13.14
2022-10-25T00:51:42.549Z,13.10
2022-10-25T00:54:50.095Z,13.14
2022-10-25T00:57:57.619Z,13.13
2022-10-25T01:01:00.753Z,13.09
2022-10-25T01:04:08.576Z,13.05
2022-10-25T01:07:13.379Z,13.04
2022-10-25T01:10:16.978Z,13.03
2022-10-25T01:13:19.839Z,12.97
2022-10-25T01:16:33.488Z,12.98
2022-10-25T01:19:52.239Z,12.93
2022-10-25T01:23:05.337Z,13.00
2022-10-25T01:26:40.778Z,12.93
2022-10-25T01:30:01.158Z,13.00
2022-10-25T01:33:18.092Z,12.95
2022-10-25T01:36:28.122Z,12.91
2022-10-25T01:39:35.736Z,12.78
2022-10-25T01:42:46.801Z,12.90
2022-10-25T01:45:56.003Z,12.84
2022-10-25T01:49:04.595Z,12.70
2022-10-25T01:52:07.616Z,12.77
2022-10-25T01:55:13.850Z,12.75
2022-10-25T01:58:29.617Z,12.72
2022-10-25T02:04:58.190Z,12.66
2022-10-25T02:08:07.453Z,12.65
2022-10-25T02:11:17.099Z,12.72
2022-10-25T02:14:27.334Z,12.68
2022-10-25T02:17:30.036Z,12.69
2022-10-25T02:20:37.166Z,12.67
2022-10-25T02:23:41.578Z,12.69
2022-10-25T02:26:45.898Z,12.73
2022-10-25T02:29:49.431Z,12.78
2022-10-25T02:32:52.951Z,12.84
2022-10-25T02:36:14.825Z,12.88
2022-10-25T02:39:19.208Z,12.96
2022-10-25T02:42:22.194Z,12.97
2022-10-25T02:45:25.297Z,12.98
2022-10-25T02:48:28.245Z,13.01
2022-10-25T02:51:32.697Z,13.02
2022-10-25T02:54:35.389Z,13.08
2022-10-25T02:57:39.194Z,13.14
2022-10-25T03:00:43.366Z,13.21
2022-10-25T03:03:46.872Z,13.26
2022-10-25T03:06:51.237Z,13.32
2022-10-25T03:09:53.956Z,13.34
2022-10-25T03:12:56.850Z,13.32
2022-10-25T03:15:59.581Z,13.28
2022-10-25T03:19:02.709Z,13.28
2022-10-25T03:22:06.778Z,13.25
2022-10-25T03:25:10.149Z,13.23
2022-10-25T03:28:13.188Z,13.18
2022-10-25T03:31:18.300Z,13.03
2022-10-25T03:34:21.068Z,13.09
2022-10-25T03:37:25.431Z,13.06
2022-10-25T03:40:28.419Z,13.03
2022-10-25T03:43:31.415Z,13.00
2022-10-25T03:46:34.401Z,12.92
2022-10-25T03:49:37.118Z,12.90
2022-10-25T03:52:42.190Z,12.88
2022-10-25T03:55:45.359Z,12.87
2022-10-25T03:58:48.097Z,12.83
2022-10-25T04:01:50.830Z,12.77
2022-10-25T04:04:54.328Z,12.72
2022-10-25T04:07:58.924Z,12.69
2022-10-25T04:11:02.378Z,12.70
2022-10-25T04:14:05.660Z,12.75
2022-10-25T04:17:08.393Z,12.76
2022-10-25T04:20:12.037Z,12.78
2022-10-25T04:23:16.471Z,12.66
2022-10-25T04:26:20.174Z,12.46
2022-10-25T04:29:23.288Z,12.47
2022-10-25T04:32:26.319Z,12.40
2022-10-25T04:35:29.016Z,12.33
2022-10-25T04:38:33.094Z,12.19
2022-10-25T04:41:35.860Z,12.10
2022-10-25T04:44:38.960Z,12.05
2022-10-25T04:47:41.731Z,11.88
2022-10-25T04:50:45.149Z,11.84
2022-10-25T04:53:49.233Z,11.73
2022-10-25T04:56:51.952Z,11.70
2022-10-25T04:59:56.531Z,11.66
2022-10-25T05:02:59.551Z,11.65
2022-10-25T05:06:07.831Z,11.66
2022-10-25T05:09:12.001Z,11.66
2022-10-25T05:12:14.882Z,11.68
2022-10-25T05:15:18.589Z,11.68
2022-10-25T05:18:21.289Z,11.72
2022-10-25T05:21:28.663Z,11.71
2022-10-25T05:24:33.165Z,11.71
2022-10-25T05:27:38.945Z,11.78
2022-10-25T05:30:42.258Z,11.83
2022-10-25T05:33:46.057Z,11.89
2022-10-25T05:36:48.900Z,11.92
2022-10-25T05:39:52.994Z,11.97
2022-10-25T05:42:55.968Z,12.03
2022-10-25T05:46:04.387Z,12.04
2022-10-25T05:49:07.128Z,12.05
2022-10-25T05:52:10.488Z,12.12
2022-10-25T05:55:14.693Z,12.15
2022-10-25T05:58:17.351Z,12.24
2022-10-25T06:01:22.697Z,12.37
2022-10-25T06:04:25.703Z,12.45
2022-10-25T06:07:28.418Z,12.54
2022-10-25T06:10:33.440Z,12.69
2022-10-25T06:13:36.955Z,12.78
2022-10-25T06:16:39.944Z,12.87
2022-10-25T06:19:43.050Z,12.92
2022-10-25T06:22:46.401Z,13.06
2022-10-25T06:25:50.645Z,13.13
2022-10-25T06:28:54.985Z,13.20
2022-10-25T06:31:57.825Z,13.32
2022-10-25T06:35:00.965Z,13.43
2022-10-25T06:38:03.681Z,13.54
2022-10-25T06:41:12.425Z,13.66
2022-10-25T06:44:15.404Z,13.77
2022-10-25T06:47:18.391Z,13.85
2022-10-25T06:50:21.731Z,13.92
2022-10-25T06:53:24.792Z,13.98
2022-10-25T06:56:30.125Z,14.00
2022-10-25T06:59:33.170Z,14.05
2022-10-25T07:02:35.875Z,14.11
2022-10-25T07:05:38.841Z,14.16
2022-10-25T07:08:43.378Z,14.21
2022-10-25T07:11:47.498Z,14.28
2022-10-25T07:14:50.385Z,14.34
2022-10-25T07:17:56.162Z,14.40
2022-10-25T07:21:03.241Z,14.45
2022-10-25T07:24:06.400Z,14.62
2022-10-25T07:27:10.800Z,14.75
2022-10-25T07:30:13.934Z,14.91
2022-10-25T07:33:18.631Z,15.00
2022-10-25T07:36:22.018Z,15.14
2022-10-25T07:39:25.058Z,15.26
2022-10-25T07:42:29.502Z,15.38
2022-10-25T07:45:32.621Z,15.48
2022-10-25T07:48:36.725Z,15.54
2022-10-25T07:51:39.868Z,15.59
2022-10-25T07:57:48.470Z,15.87
2022-10-25T08:00:51.558Z,15.99
2022-10-25T08:03:56.426Z,16.09
2022-10-25T08:07:00.786Z,16.22
2022-10-25T08:10:03.758Z,16.35
2022-10-25T08:13:07.811Z,16.45
2022-10-25T08:16:10.847Z,16.54
2022-10-25T08:19:13.597Z,16.66
2022-10-25T08:22:16.617Z,16.82
2022-10-25T08:25:21.537Z,16.97
2022-10-25T08:28:28.377Z,17.12
2022-10-25T08:31:31.553Z,17.24
2022-10-25T08:34:34.287Z,17.29
2022-10-25T08:37:37.246Z,17.32
2022-10-25T08:40:52.944Z,17.32
2022-10-25T08:44:19.553Z,17.33
2022-10-25T08:47:27.165Z,17.37
2022-10-25T08:50:38.705Z,17.43
2022-10-25T08:53:48.799Z,17.54
2022-10-25T08:57:10.770Z,17.68
2022-10-25T09:00:22.770Z,17.85
2022-10-25T09:03:27.554Z,17.95
2022-10-25T09:06:36.493Z,18.04
2022-10-25T09:09:47.073Z,18.11
2022-10-25T09:12:59.949Z,18.16
2022-10-25T09:16:13.812Z,18.27
2022-10-25T09:19:19.425Z,18.28
2022-10-25T09:22:27.284Z,18.32
2022-10-25T09:25:35.340Z,18.15
2022-10-25T09:28:51.974Z,18.32
2022-10-25T09:31:59.517Z,18.31
2022-10-25T09:35:04.376Z,18.32
2022-10-25T09:38:13.560Z,18.35
2022-10-25T09:41:23.573Z,18.37
2022-10-25T09:44:40.163Z,18.33
2022-10-25T09:47:50.292Z,18.30
2022-10-25T09:50:58.937Z,18.34
2022-10-25T09:54:05.901Z,18.34
2022-10-25T09:57:09.265Z,18.29
2022-10-25T10:00:15.427Z,18.21
2022-10-25T10:03:21.230Z,18.11
2022-10-25T10:06:26.748Z,18.02
2022-10-25T10:09:31.650Z,17.86
2022-10-25T10:12:40.957Z,17.83
2022-10-25T10:15:53.140Z,17.77
2022-10-25T10:19:15.118Z,17.64
2022-10-25T10:22:18.662Z,17.49
2022-10-25T10:25:25.182Z,17.39
2022-10-25T10:28:28.048Z,17.36
2022-10-25T10:31:36.873Z,17.34
2022-10-25T10:34:44.626Z,17.41
2022-10-25T10:37:47.894Z,17.31
2022-10-25T10:40:52.199Z,17.63
2022-10-25T10:44:10.175Z,17.74
2022-10-25T10:47:21.097Z,17.89
2022-10-25T10:50:31.363Z,17.87
2022-10-25T10:53:34.783Z,18.16
2022-10-25T10:56:37.601Z,18.31
2022-10-25T10:59:46.685Z,18.50
2022-10-25T11:02:49.876Z,18.67
2022-10-25T11:05:55.921Z,18.82
2022-10-25T11:09:16.947Z,18.96
2022-10-25T11:12:20.068Z,19.00
2022-10-25T11:15:23.077Z,19.02
2022-10-25T11:18:34.411Z,19.04
2022-10-25T11:22:12.334Z,18.99
2022-10-25T11:25:25.748Z,18.92
2022-10-25T11:28:46.277Z,18.87
2022-10-25T11:32:02.596Z,18.88
2022-10-25T11:35:17.963Z,18.90
2022-10-25T11:38:33.633Z,18.93
2022-10-25T11:41:46.313Z,18.94
2022-10-25T11:45:15.145Z,19.00
2022-10-25T11:48:33.198Z,18.91
2022-10-25T11:51:44.042Z,19.21
2022-10-25T11:54:54.763Z,19.27
2022-10-25T11:58:08.238Z,19.31
2022-10-25T12:01:26.975Z,19.29
2022-10-25T12:04:43.700Z,19.25
2022-10-25T12:07:52.458Z,19.36
2022-10-25T12:11:03.633Z,19.33
2022-10-25T12:14:11.898Z,19.26
2022-10-25T12:17:22.552Z,19.23
2022-10-25T12:20:28.424Z,19.12
2022-10-25T12:23:37.859Z,19.16
2022-10-25T12:26:43.446Z,19.17
2022-10-25T12:29:52.057Z,19.21
2022-10-25T12:32:59.322Z,19.26
2022-10-25T12:36:05.624Z,19.30
2022-10-25T12:39:15.300Z,19.29
2022-10-25T12:42:24.581Z,19.23
2022-10-25T12:45:45.660Z,19.08
2022-10-25T12:49:23.182Z,18.92
2022-10-25T12:52:33.164Z,18.82
2022-10-25T12:55:46.035Z,18.97
2022-10-25T12:59:01.026Z,19.08
2022-10-25T13:02:22.104Z,19.18
2022-10-25T13:06:02.004Z,19.21
2022-10-25T13:09:08.092Z,19.20
2022-10-25T13:12:22.135Z,19.17
2022-10-25T13:15:26.343Z,19.02
2022-10-25T13:18:40.900Z,18.83
2022-10-25T13:22:08.184Z,18.64
2022-10-25T13:25:19.570Z,18.65
2022-10-25T13:28:35.256Z,18.84
2022-10-25T13:31:59.770Z,19.02
2022-10-25T13:35:03.856Z,19.14
2022-10-25T13:38:08.700Z,19.19
2022-10-25T13:41:17.703Z,19.20
2022-10-25T13:44:21.907Z,19.26
2022-10-25T13:47:36.639Z,19.36
2022-10-25T13:50:44.656Z,19.26
2022-10-25T13:53:51.754Z,18.94
2022-10-25T13:56:55.075Z,19.26
2022-10-25T14:00:02.307Z,19.35
2022-10-25T14:03:25.870Z,19.30
2022-10-25T14:06:30.432Z,19.10
2022-10-25T14:09:36.614Z,18.91
2022-10-25T14:12:44.138Z,18.74
2022-10-25T14:15:53.653Z,18.57
2022-10-25T14:19:03.039Z,18.44
2022-10-25T14:22:15.736Z,18.46
2022-10-25T14:25:23.157Z,18.44
2022-10-25T14:28:28.052Z,18.47
2022-10-25T14:31:30.903Z,18.60
2022-10-25T14:34:35.148Z,18.53
2022-10-25T14:37:42.380Z,18.43
2022-10-25T14:40:51.484Z,18.31
2022-10-25T14:43:54.958Z,18.21
2022-10-25T14:46:59.294Z,18.18
2022-10-25T14:50:03.555Z,18.18
2022-10-25T14:53:06.419Z,18.19
2022-10-25T14:56:09.516Z,18.16
2022-10-25T14:59:21.075Z,18.09
2022-10-25T15:02:27.403Z,18.05
2022-10-25T15:05:31.903Z,17.92
2022-10-25T15:08:37.635Z,17.82
2022-10-25T15:11:40.676Z,17.69
2022-10-25T15:14:43.705Z,17.55
2022-10-25T15:17:52.408Z,17.36
2022-10-25T15:21:05.967Z,17.23
2022-10-25T15:24:13.920Z,17.12
2022-10-25T15:27:27.926Z,17.02
2022-10-25T15:30:35.961Z,16.99
2022-10-25T15:33:39.073Z,16.98
2022-10-25T15:36:45.731Z,16.92
2022-10-25T15:39:49.981Z,16.77
2022-10-25T15:42:52.956Z,16.72
2022-10-25T15:45:56.378Z,16.72
2022-10-25T15:49:00.803Z,16.50
2022-10-25T15:52:05.482Z,16.51
2022-10-25T15:55:19.366Z,16.38
2022-10-25T15:58:22.390Z,16.24
2022-10-25T16:01:25.411Z,16.09
2022-10-25T16:04:28.323Z,15.91
2022-10-25T16:07:32.560Z,15.77
2022-10-25T16:10:35.346Z,15.65
2022-10-25T16:13:39.475Z,15.56
2022-10-25T16:16:42.859Z,15.41
2022-10-25T16:19:45.599Z,15.23
2022-10-25T16:22:50.643Z,15.13
2022-10-25T16:25:54.711Z,15.05
2022-10-25T16:28:57.433Z,14.95
2022-10-25T16:32:00.133Z,14.86
2022-10-25T16:35:03.856Z,14.77
2022-10-25T16:38:08.122Z,14.70
2022-10-25T16:41:23.287Z,14.57
2022-10-25T16:44:25.946Z,14.51
2022-10-25T16:47:29.432Z,14.44
2022-10-25T16:50:33.598Z,14.37
2022-10-25T16:53:37.679Z,14.29
2022-10-25T16:56:40.573Z,14.29
2022-10-25T16:59:43.644Z,14.17
2022-10-25T17:02:46.650Z,14.13
2022-10-25T17:05:50.566Z,14.11
2022-10-25T17:08:54.584Z,13.99
2022-10-25T17:11:57.304Z,13.92
2022-10-25T17:15:00.017Z,13.89
2022-10-25T17:18:03.720Z,13.88
2022-10-25T17:21:08.387Z,13.71
2022-10-25T17:24:12.532Z,13.63
2022-10-25T17:27:15.204Z,13.58
2022-10-25T17:30:18.231Z,13.51
2022-10-25T17:33:21.019Z,13.46
2022-10-25T17:36:23.728Z,13.43
2022-10-25T17:39:27.977Z,13.45
2022-10-25T17:42:30.826Z,13.50
2022-10-25T17:45:33.596Z,13.47
2022-10-25T17:48:36.711Z,13.39
2022-10-25T17:51:40.489Z,13.22
2022-10-25T17:54:44.973Z,13.19
2022-10-25T17:57:47.857Z,13.11
2022-10-25T18:00:51.046Z,13.09
2022-10-25T18:03:55.354Z,13.04
2022-10-25T18:06:58.081Z,12.99
2022-10-25T18:10:02.289Z,12.96
2022-10-25T18:13:05.182Z,12.93
2022-10-25T18:16:08.907Z,12.88
2022-10-25T18:19:14.267Z,12.83
2022-10-25T18:22:19.884Z,12.80
2022-10-25T18:25:23.928Z,12.76
2022-10-25T18:28:26.886Z,12.71
2022-10-25T18:31:29.819Z,12.69
2022-10-25T18:34:32.695Z,12.69
2022-10-25T18:37:35.451Z,12.66
2022-10-25T18:40:40.148Z,12.59
2022-10-25T18:43:43.341Z,12.54
2022-10-25T18:46:46.702Z,12.46
2022-10-25T18:49:49.494Z,12.40
2022-10-25T18:52:52.294Z,12.39
2022-10-25T18:55:56.477Z,12.39
2022-10-25T18:59:00.099Z,12.31
2022-10-25T19:02:03.338Z,12.33
2022-10-25T19:08:11.881Z,12.18
2022-10-25T19:11:17.216Z,12.17
2022-10-25T19:14:19.953Z,12.11
2022-10-25T19:17:22.779Z,12.09
2022-10-25T19:20:25.746Z,12.06
2022-10-25T19:23:28.468Z,12.07
2022-10-25T19:26:32.532Z,12.00
2022-10-25T19:29:35.196Z,11.94
2022-10-25T19:32:38.002Z,11.96
2022-10-25T19:35:40.798Z,11.92
2022-10-25T19:38:45.078Z,11.88
2022-10-25T19:41:50.479Z,11.81
2022-10-25T19:44:54.005Z,11.87
2022-10-25T19:47:59.004Z,11.78
2022-10-25T19:51:05.441Z,11.76
2022-10-25T19:54:08.484Z,11.71
2022-10-25T19:57:12.562Z,11.71
2022-10-25T20:00:16.318Z,11.65
2022-10-25T20:03:19.344Z,11.69
2022-10-25T20:06:25.007Z,11.73
2022-10-25T20:09:28.027Z,11.63
2022-10-25T20:12:32.365Z,11.58
2022-10-25T20:15:35.141Z,11.59
2022-10-25T20:18:39.996Z,11.62
2022-10-25T20:21:42.857Z,11.61
2022-10-25T20:24:45.552Z,11.61
2022-10-25T20:27:49.947Z,11.58
2022-10-25T20:30:52.959Z,11.46
2022-10-25T20:33:56.996Z,11.54
2022-10-25T20:37:00.026Z,11.47
2022-10-25T20:40:04.078Z,11.50
2022-10-25T20:43:08.368Z,11.50
2022-10-25T20:46:11.404Z,11.46
2022-10-25T20:49:14.119Z,11.44
2022-10-25T20:52:17.784Z,11.41
2022-10-25T20:55:21.138Z,11.39
2022-10-25T20:58:26.078Z,11.41
2022-10-25T21:01:28.978Z,11.41
2022-10-25T21:07:55.077Z,11.44
2022-10-25T21:10:59.435Z,11.46
2022-10-25T21:14:03.514Z,11.51
2022-10-25T21:17:06.289Z,11.54
2022-10-25T21:20:10.212Z,11.47
2022-10-25T21:23:13.611Z,11.45
2022-10-25T21:26:16.875Z,11.44
2022-10-25T21:29:21.044Z,11.41
2022-10-25T21:32:23.922Z,11.41
2022-10-25T21:35:26.909Z,11.44
2022-10-25T21:38:29.809Z,11.44
2022-10-25T21:41:33.944Z,11.48
2022-10-25T21:44:37.988Z,11.48
2022-10-25T21:47:40.614Z,11.47
2022-10-25T21:50:43.644Z,11.47
2022-10-25T21:53:46.941Z,11.48
2022-10-25T21:56:52.437Z,11.48
2022-10-25T21:59:56.698Z,11.58
2022-10-25T22:02:59.589Z,11.54
2022-10-25T22:06:02.493Z,11.60
2022-10-25T22:09:05.600Z,11.52
2022-10-25T22:12:08.765Z,11.52
2022-10-25T22:15:13.063Z,11.55
2022-10-25T22:18:15.777Z,11.54
2022-10-25T22:21:19.328Z,11.57
2022-10-25T22:24:22.344Z,11.59
2022-10-25T22:27:25.274Z,11.57
2022-10-25T22:30:29.305Z,11.53
2022-10-25T22:33:32.252Z,11.51
2022-10-25T22:36:37.083Z,11.54
2022-10-25T22:39:40.152Z,11.55
2022-10-25T22:42:43.100Z,11.54
2022-10-25T22:45:47.433Z,11.54
2022-10-25T22:48:50.809Z,11.50
2022-10-25T22:51:53.808Z,11.57
2022-10-25T22:54:56.796Z,11.70
2022-10-25T22:57:59.804Z,11.66
2022-10-25T23:01:06.590Z,11.61
2022-10-25T23:04:10.910Z,11.58
2022-10-25T23:07:13.693Z,11.63
2022-10-25T23:10:17.997Z,11.68
2022-10-25T23:13:20.797Z,11.83
2022-10-25T23:16:27.367Z,11.72
2022-10-25T23:19:30.284Z,11.68
2022-10-25T23:22:33.126Z,11.67
2022-10-25T23:25:35.725Z,11.64
2022-10-25T23:28:38.602Z,11.64
2022-10-25T23:31:42.664Z,11.64
2022-10-25T23:34:45.590Z,11.67
2022-10-25T23:37:48.826Z,11.68
2022-10-25T23:40:51.624Z,11.69
2022-10-25T23:43:54.615Z,11.82
2022-10-25T23:46:58.980Z,12.03
2022-10-25T23:50:01.781Z,11.88
2022-10-25T23:53:04.519Z,12.01
2022-10-25T23:56:09.740Z,11.92
2022-10-25T23:59:12.727Z,11.89
